METAR Data
IDs: Format: Raw Decoded Include TAF

Data at: 0315 UTC 18 Jun 2019

PANT 180253Z AUTO 20011G18KT 10SM SCT007 OVC017 12/12 A2992 RMK SLP131 60003 T01170117 53024 TSNO VIA AUTODIAL
PANT 180241Z AUTO 20012G21KT 10SM FEW008 OVC017 12/12 A2991 RMK T01170117 TSNO VIA AUTODIAL
PANT 180153Z AUTO 18008G17KT 150V220 10SM SCT020 OVC026 12/12 A2989 RMK RAE31 SLP121 P0000 T01220117 TSNO VIA AUTODIAL
PANT 180139Z AUTO 19010G15KT 150V220 10SM FEW005 SCT017 OVC024 12/12 A2988 RMK RAE31 P0000 T01220117 TSNO VIA AUTODIAL
PANT 180108Z AUTO 20009G19KT 10SM -RA OVC005 12/12 A2986 RMK P0000 T01220122 TSNO VIA AUTODIAL
PANT 172353Z AUTO 16010G20KT 10SM OVC004 12/12 A2985 RMK RAB02E50 SLP107 P0006 60037 T01220122 10122 20117 53001 TSNO VIA AUTODIAL
PANT 172333Z AUTO 16009G18KT 3SM RA BR OVC004 12/12 A2984 RMK RAB02 P0005 T01220122 TSNO VIA AUTODIAL
PANT 172329Z AUTO 15010G17KT 1 3/4SM RA BR OVC004 12/12 A2984 RMK RAB02 P0005 T01220122 TSNO VIA AUTODIAL
PANT 172322Z AUTO 15010G19KT 1 3/4SM RA BR OVC005 12/12 A2984 RMK RAB02 P0001 T01220122 TSNO VIA AUTODIAL
PANT 172253Z AUTO 15011G19KT 10SM OVC005 12/12 A2984 RMK RAE34 SLP107 P0001 T01220122 TSNO VIA AUTODIAL
PANT 172251Z AUTO 15011G19KT 10SM OVC005 12/12 A2984 RMK RAE34 P0001 TSNO VIA AUTODIAL
PANT 172153Z AUTO 15013G18KT 10SM -RA OVC004 12/12 A2984 RMK SLP104 P0011 T01170117 TSNO VIA AUTODIAL
PANT 172142Z AUTO 15009KT 9SM -RA OVC004 12/12 A2984 RMK P0011 T01170117 TSNO VIA AUTODIAL
PANT 172114Z AUTO 15012KT 4SM RA BR OVC005 12/12 A2984 RMK P0007 T01170117 TSNO VIA AUTODIAL
PANT 171953Z AUTO 15008G18KT 4SM RA BR OVC004 12/12 A2986 RMK SLP111 P0006 T01220122 TSNO VIA AUTODIAL
PANT 171853Z AUTO 15009G16KT 10SM -RA OVC003 12/12 A2986 RMK RAE22B48 SLP111 P0000 T01220122 TSNO VIA AUTODIAL
PANT 171653Z AUTO 15009G17KT 1/2SM -RA FG VV002 12/12 A2988 RMK RAB05E22B52 SLP118 P0000 T01170117 TSNO VIA AUTODIAL
PANT 171651Z AUTO 16010G17KT 1/2SM FG VV002 12/12 A2988 RMK RAB05E22 P0000 TSNO VIA AUTODIAL
PANT 171638Z AUTO 15009KT 1/4SM FG VV002 12/12 A2988 RMK RAB05E22 P0000 T01220122 TSNO VIA AUTODIAL
PANT 171617Z AUTO 15011G18KT 1/2SM -RA FG VV002 12/12 A2988 RMK RAB05 P0000 T01170117 TSNO VIA AUTODIAL
PANT 171553Z AUTO 15009G15KT 1/4SM FG VV002 12/12 A2988 RMK SLP120 T01170117 TSNO VIA AUTODIAL
PANT 171549Z AUTO 15009G15KT 1/4SM FG VV002 12/12 A2988 RMK TSNO VIA AUTODIAL
PANT 171533Z AUTO 16007KT 1/2SM FG VV002 12/12 A2989 RMK T01170117 TSNO VIA AUTODIAL
PANT 171521Z AUTO 16008KT 1/4SM FG VV002 12/12 A2989 RMK T01170117 TSNO VIA AUTODIAL
PANT 171503Z AUTO 16008G14KT 130V210 3/4SM BR VV002 12/12 A2989
PANT 171453Z AUTO 16007KT 1/4SM FG VV002 12/12 A2989 RMK RAE08 SLP123 P0000 60015 T01170117 56002 TSNO VIA AUTODIAL
PANT 171449Z AUTO 17007KT 1/4SM FG VV002 12/12 A2989 RMK RAE08 P0000 TSNO VIA AUTODIAL
PANT 171442Z AUTO 16008KT 1/2SM FG VV002 12/12 A2989 RMK RAE08 P0000 T01170117 TSNO VIA AUTODIAL
PANT 171434Z AUTO 16007G14KT 1/4SM FG VV002 12/12 A2989 RMK RAE08 P0000 T01170117 TSNO VIA AUTODIAL
PANT 171353Z AUTO 16008KT 140V210 3/4SM -RA BR VV002 12/12 A2989 RMK SLP123 P0004 T01170117 TSNO VIA AUTODIAL
PANT 171344Z AUTO 17007KT 130V200 1/2SM -RA FG VV002 12/12 A2990
PANT 171318Z AUTO 17007KT 1 3/4SM -RA BR OVC003 12/12 A2990 RMK P0002 T01170117 TSNO VIA AUTODIAL
PANT 171253Z AUTO 16010G18KT 7SM -RA OVC003 12/12 A2990 RMK SLP125 P0011 T01170117 TSNO VIA AUTODIAL
PANT 171234Z AUTO 16009KT 3SM RA BR OVC003 12/12 A2990 RMK P0010 T01220122 TSNO VIA AUTODIAL
PANT 171221Z AUTO 16008KT 2 1/2SM RA BR OVC003 12/12 A2990 RMK P0007 T01220122 TSNO VIA AUTODIAL
PANT 171153Z AUTO 15010KT 3SM RA BR OVC003 12/12 A2990 RMK SLP127 P0016 60034 70038 T01220122 10139 20122 58014 TSNO VIA AUTODIAL
PANT 171119Z AUTO 15011G17KT 3SM RA BR OVC003 12/12 A2991 RMK P0007 T01220122 TSNO VIA AUTODIAL
PANT 170953Z AUTO 15011G17KT 6SM -RA BR OVC002 12/12 A2994 RMK RAB0855 SLP141 P0003 T01220122 TSNO VIA AUTODIAL
PANT 170948Z AUTO 15010G18KT 7SM -RA OVC002 12/12 A2994 RMK RAB0855 P0003 TSNO VIA AUTODIAL
PANT 170930Z AUTO 15012G19KT 2SM -RA BR OVC003 12/12 A2995 RMK RAB0855 P0002 T01220122 TSNO VIA AUTODIAL
PANT 170853Z AUTO 15009KT 10SM OVC004 13/13 A2995 RMK RAE26 SLP143 P0002 60003 T01280128 401560117 56004 TSNO VIA AUTODIAL
PANT 170851Z AUTO 15009KT 10SM OVC004 13/13 A2995 RMK RAE26 P0002 TSNO VIA AUTODIAL
PANT 170753Z AUTO 15009G16KT 9SM -RA OVC006 13/13 A2995 RMK RAB40 SLP144 P0001 T01280128 TSNO VIA AUTODIAL
PANT 170733Z AUTO 14010KT 10SM OVC008 13/12 A2996 RMK CIG 006V013 T01330122 TSNO VIA AUTODIAL
PANT 170711Z AUTO 14009KT 10SM BKN013 BKN028 OVC037 13/12 A2996 RMK T01330122 TSNO VIA AUTODIAL
PANT 170653Z AUTO 14011KT 10SM SCT015 BKN021 OVC033 14/12 A2996 RMK SLP146 T01390122 TSNO VIA AUTODIAL
PANT 170553Z AUTO 14005KT 10SM SCT019 BKN024 OVC038 13/12 A2996 RMK RAE0459 SLP147 P0000 60000 T01330122 10156 20128 58009 TSNO VIA AUTODIAL
PANT 170522Z AUTO VRB05KT 10SM FEW019 BKN024 OVC060 13/12 A2997 RMK RAE0459 P0000 T01330122 TSNO VIA AUTODIAL
PANT 170453Z AUTO 16006KT 10SM -RA FEW017 BKN049 OVC060 13/12 A2998 RMK RAB52 SLP153 P0000 T01330122 TSNO VIA AUTODIAL
PANT 170253Z AUTO 13008KT 10SM SCT055 SCT080 OVC095 15/13 A2999 RMK SLP156 T01500128 58016 TSNO VIA AUTODIAL
PANT 170224Z AUTO 13009KT 10SM FEW015 SCT044 OVC075 15/13 A3000 RMK T01500128 TSNO VIA AUTODIAL
PANT 170153Z AUTO 14008KT 10SM OVC015 14/13 A3002 RMK SLP165 T01440133 TSNO VIA AUTODIAL
PANT 170146Z AUTO 14007KT 10SM OVC015 14/13 A3002 RMK T01440133 TSNO VIA AUTODIAL
PANT 170122Z AUTO 15005KT 10SM OVC013 14/13 A3002 RMK T01390128 TSNO VIA AUTODIAL
PANT 162253Z AUTO 17005KT 10SM SCT004 BKN016 OVC055 13/13 A3004 RMK RAE36 SLP174 P0000 T01280128 TSNO VIA AUTODIAL
PANT 162210Z AUTO 16004KT 9SM -RA SCT004 BKN018 OVC032 13/13 A3004 RMK P0000 T01280128 TSNO VIA AUTODIAL
PANT 162200Z AUTO 00000KT 10SM -RA BKN004 OVC014 13/13 A3005 RMK P0000 T01280128 TSNO VIA AUTODIAL
PANT 162153Z AUTO 18005KT 10SM -RA SCT004 OVC014 13/13 A3005 RMK RAB40 SLP176 P0000 T01280128 TSNO VIA AUTODIAL
PANT 162108Z AUTO 18006KT 10SM FEW006 OVC011 13/13 A3005 RMK T01280128 TSNO VIA AUTODIAL
PANT 162053Z AUTO VRB04KT 10SM OVC009 13/13 A3005 RMK CIG 006V012 SLP178 T01280128 50001 TSNO VIA AUTODIAL
PANT 161953Z AUTO 16004KT 10SM OVC006 13/13 A3006 RMK SLP179 T01280128 TSNO VIA AUTODIAL
PANT 161853Z AUTO 15006KT 10SM OVC005 13/13 A3005 RMK SLP178 T01280128 TSNO VIA AUTODIAL
PANT 161810Z AUTO 14005KT 10SM OVC005 13/13 A3005 RMK CIG 004V009 T01280128 TSNO VIA AUTODIAL
PANT 161753Z AUTO 14008KT 5SM BR OVC004 13/13 A3005 RMK RAB13E53 SLP177 P0001 60004 T01280128 10128 20117 50000 TSNO VIA AUTODIAL
PANT 161751Z AUTO 13008KT 5SM -RA BR OVC004 13/13 A3005 RMK RAB13 P0001 TSNO VIA AUTODIAL
PANT 161729Z AUTO 14005KT 4SM -RA BR OVC005 13/13 A3005 RMK RAB13 P0000 T01280128 TSNO VIA AUTODIAL
PANT 161653Z AUTO 14009KT 5SM BR OVC004 12/12 A3006 RMK SLP178 T01220122 TSNO VIA AUTODIAL
PANT 161650Z AUTO 14009KT 5SM BR OVC003 13/13 A3005 RMK TSNO VIA AUTODIAL
PANT 161634Z AUTO 14008KT 2SM BR OVC003 12/12 A3005 RMK VIS 1 1/2V2 1/2 T01220122 TSNO VIA AUTODIAL
PANT 161619Z AUTO 14008KT 1SM BR OVC004 12/12 A3005 RMK T01220122 TSNO VIA AUTODIAL
PANT 161600Z AUTO 14006KT 1 3/4SM BR OVC005 12/12 A3005 RMK CIG 003V008 T01220122 TSNO VIA AUTODIAL
PANT 161553Z AUTO 14006KT 3SM BR OVC005 12/12 A3005 RMK RAE10 CIG 003V008 SLP177 P0001 T01220122 TSNO VIA AUTODIAL
PANT 161551Z AUTO 14006KT 4SM BR OVC005 13/13 A3005 RMK RAE10 CIG 003V008 P0001 TSNO VIA AUTODIAL
PANT 161522Z AUTO 14006KT 8SM OVC004 12/12 A3005 RMK RAE10 P0001 T01220122 TSNO VIA AUTODIAL